createdAt,value
2022-12-08T00:00:50.736Z,4.13
2022-12-08T00:05:56.054Z,4.03
2022-12-08T00:11:01.222Z,4.08
2022-12-08T00:16:06.508Z,4.09
2022-12-08T00:21:11.719Z,4.02
2022-12-08T00:26:16.943Z,3.86
2022-12-08T00:31:22.260Z,3.56
2022-12-08T00:36:27.395Z,3.37
2022-12-08T00:41:32.653Z,3.11
2022-12-08T00:46:37.883Z,2.93
2022-12-08T00:51:43.150Z,2.77
2022-12-08T00:56:53.364Z,2.48
2022-12-08T01:01:58.592Z,2.21
2022-12-08T01:07:03.812Z,2
2022-12-08T01:12:09.064Z,1.78
2022-12-08T01:17:14.416Z,1.62
2022-12-08T01:22:19.557Z,1.45
2022-12-08T01:27:24.765Z,1.38
2022-12-08T01:32:30.040Z,1.28
2022-12-08T01:37:35.404Z,1.12
2022-12-08T01:42:49.511Z,1.02
2022-12-08T01:47:57.760Z,0.93
2022-12-08T01:53:09.897Z,0.87
2022-12-08T01:58:19.143Z,0.84
2022-12-08T02:03:29.361Z,0.87
2022-12-08T02:08:36.595Z,0.95
2022-12-08T02:13:45.831Z,1.12
2022-12-08T02:19:29.306Z,1.38
2022-12-08T02:24:47.186Z,1.48
2022-12-08T02:30:07.629Z,1.44
2022-12-08T02:35:19.572Z,1.59
2022-12-08T02:40:31.804Z,1.85
2022-12-08T02:45:44.996Z,2.07
2022-12-08T02:50:51.242Z,2.31
2022-12-08T02:56:03.541Z,2.49
2022-12-08T03:01:19.755Z,2.72
2022-12-08T03:06:32.902Z,2.89
2022-12-08T03:11:48.165Z,3.06
2022-12-08T03:16:57.340Z,3.16
2022-12-08T03:22:05.575Z,3.21
2022-12-08T03:27:15.816Z,3.27
2022-12-08T03:32:27.050Z,3.24
2022-12-08T03:37:35.281Z,3.35
2022-12-08T03:42:40.472Z,3.34
2022-12-08T03:47:45.731Z,3.4
2022-12-08T03:52:50.971Z,3.46
2022-12-08T03:57:56.231Z,3.52
2022-12-08T04:03:01.534Z,3.52
2022-12-08T04:08:06.739Z,3.42
2022-12-08T04:13:11.889Z,3.26
2022-12-08T04:18:17.167Z,3.16
2022-12-08T04:23:22.396Z,3.15
2022-12-08T04:28:27.625Z,3.13
2022-12-08T04:33:32.852Z,3.19
2022-12-08T04:38:38.091Z,2.99
2022-12-08T04:43:43.338Z,2.68
2022-12-08T04:48:48.586Z,2.52
2022-12-08T04:53:53.820Z,2.36
2022-12-08T04:58:59.058Z,2.21
2022-12-08T05:04:04.334Z,2
2022-12-08T05:09:09.521Z,2
2022-12-08T05:14:15.732Z,1.98
2022-12-08T05:19:20.972Z,2.22
2022-12-08T05:24:26.215Z,2.42
2022-12-08T05:29:31.482Z,2.69
2022-12-08T05:34:36.699Z,2.84
2022-12-08T05:39:47.936Z,2.93
2022-12-08T05:44:53.137Z,2.97
2022-12-08T05:49:58.414Z,3.16
2022-12-08T05:55:03.652Z,3.27
2022-12-08T06:00:09.884Z,3.29
2022-12-08T06:05:15.114Z,3.29
2022-12-08T06:10:20.308Z,3.3
2022-12-08T06:15:25.613Z,3.24
2022-12-08T06:20:30.833Z,3.39
2022-12-08T06:25:36.081Z,3.32
2022-12-08T06:30:41.311Z,3.3
2022-12-08T06:35:46.531Z,3.37
2022-12-08T06:40:53.785Z,3.28
2022-12-08T06:45:59.010Z,3.41
2022-12-08T06:51:07.223Z,3.38
2022-12-08T06:56:16.480Z,3.4
2022-12-08T07:01:21.804Z,3.55
2022-12-08T07:06:27.902Z,3.65
2022-12-08T07:11:39.183Z,3.65
2022-12-08T07:16:44.570Z,3.89
2022-12-08T07:21:49.608Z,3.91
2022-12-08T07:26:54.862Z,4.11
2022-12-08T07:32:00.078Z,4.13
2022-12-08T07:37:05.330Z,4.25
2022-12-08T07:42:10.586Z,4.45
2022-12-08T07:47:15.813Z,4.66
2022-12-08T07:52:22.027Z,4.63
2022-12-08T07:57:30.280Z,4.56
2022-12-08T08:02:35.621Z,4.56
2022-12-08T08:07:41.803Z,4.66
2022-12-08T08:12:46.977Z,4.62
2022-12-08T08:17:53.256Z,4.87
2022-12-08T08:22:58.433Z,5.01
2022-12-08T08:28:03.710Z,5.28
2022-12-08T08:33:08.963Z,5.38
2022-12-08T08:38:14.186Z,5.19
2022-12-08T08:43:19.416Z,4.85
2022-12-08T08:48:24.636Z,4.92
2022-12-08T08:53:29.886Z,5.11
2022-12-08T08:58:35.118Z,5.1
2022-12-08T09:03:40.319Z,4.97
2022-12-08T09:08:45.596Z,4.99
2022-12-08T09:13:50.844Z,5.25
2022-12-08T09:18:56.040Z,5.48
2022-12-08T09:24:01.318Z,5.66
2022-12-08T09:29:06.595Z,5.65
2022-12-08T09:34:11.785Z,6.31
2022-12-08T09:39:17.046Z,6.62
2022-12-08T09:44:37.217Z,7.03
2022-12-08T09:49:49.477Z,7.09
2022-12-08T09:54:59.626Z,7.26
2022-12-08T10:00:07.259Z,7.61
2022-12-08T10:05:15.236Z,7.86
2022-12-08T10:10:30.317Z,8.13
2022-12-08T10:15:42.633Z,7.89
2022-12-08T10:20:49.769Z,7.54
2022-12-08T10:26:06.980Z,7.72
2022-12-08T10:31:16.331Z,7.56
2022-12-08T10:36:22.448Z,7.64
2022-12-08T10:41:31.691Z,7.8
2022-12-08T10:46:41.029Z,7.88
2022-12-08T10:51:54.130Z,8.01
2022-12-08T10:57:00.400Z,8.96
2022-12-08T11:07:22.816Z,9.39
2022-12-08T11:12:30.049Z,9.25
2022-12-08T11:17:40.273Z,8.77
2022-12-08T11:22:54.480Z,8.82
2022-12-08T11:28:00.729Z,8.82
2022-12-08T11:33:12.908Z,9.12
2022-12-08T11:38:21.887Z,8.92
2022-12-08T11:43:38.373Z,8.51
2022-12-08T11:48:50.583Z,8.59
2022-12-08T11:54:05.851Z,8.81
2022-12-08T11:59:20.000Z,8.85
2022-12-08T12:04:32.246Z,8.75
2022-12-08T12:09:48.431Z,8.47
2022-12-08T12:15:16.611Z,8.45
2022-12-08T12:20:25.880Z,8.31
2022-12-08T12:25:32.074Z,8.36
2022-12-08T12:30:52.361Z,8.29
2022-12-08T12:36:16.437Z,8.43
2022-12-08T12:41:25.491Z,8.48
2022-12-08T12:47:48.568Z,8.6
2022-12-08T12:54:20.748Z,8.45
2022-12-08T12:59:35.001Z,8.4
2022-12-08T13:04:41.224Z,8.5
2022-12-08T13:09:56.711Z,8.66
2022-12-08T13:15:05.657Z,8.6
2022-12-08T13:20:18.833Z,8.62
2022-12-08T13:26:28.994Z,8.65
2022-12-08T13:31:38.173Z,8.53
2022-12-08T13:37:00.347Z,8.5
2022-12-08T13:42:14.547Z,8.65
2022-12-08T13:47:34.213Z,8.62
2022-12-08T13:58:29.151Z,8.47
2022-12-08T14:04:04.314Z,8.39
2022-12-08T14:09:34.486Z,8.4
2022-12-08T14:15:01.186Z,8.4
2022-12-08T14:20:19.889Z,8.29
2022-12-08T14:25:35.362Z,8.11
2022-12-08T14:30:49.357Z,8.09
2022-12-08T14:35:56.528Z,8
2022-12-08T14:41:04.747Z,7.95
2022-12-08T14:46:22.008Z,7.97
2022-12-08T14:51:32.211Z,7.83
2022-12-08T14:56:41.410Z,7.73
2022-12-08T15:01:48.816Z,7.77
2022-12-08T15:06:55.845Z,7.8
2022-12-08T15:12:06.105Z,7.79
2022-12-08T15:17:41.239Z,7.72
2022-12-08T15:22:50.497Z,7.75
2022-12-08T15:27:56.699Z,7.67
2022-12-08T15:33:01.960Z,7.65
2022-12-08T15:38:08.280Z,7.65
2022-12-08T15:43:13.427Z,13.44
2022-12-08T15:48:19.666Z,16
2022-12-08T15:53:25.919Z,13.37
2022-12-08T15:58:53.059Z,9.61
2022-12-08T16:09:38.818Z,8.1
2022-12-08T16:20:20.113Z,7.88
2022-12-08T16:25:46.047Z,7.81
2022-12-08T16:31:16.660Z,7.68
2022-12-08T16:36:24.458Z,7.64
2022-12-08T16:41:29.657Z,7.5
2022-12-08T16:46:34.977Z,7.51
2022-12-08T16:51:42.185Z,7.57
2022-12-08T16:56:47.411Z,7.44
2022-12-08T17:01:52.641Z,7.52
2022-12-08T17:06:57.854Z,7.62
2022-12-08T17:12:04.335Z,7.64
2022-12-08T17:17:09.323Z,7.66
2022-12-08T17:22:14.606Z,7.67
2022-12-08T17:27:19.809Z,7.63
2022-12-08T17:32:25.128Z,7.55
2022-12-08T17:37:30.261Z,7.59
2022-12-08T17:42:35.526Z,7.62
2022-12-08T17:47:40.746Z,7.52
2022-12-08T17:52:49.960Z,7.44
2022-12-08T17:57:59.480Z,7.47
2022-12-08T18:03:04.493Z,7.45
2022-12-08T18:08:09.777Z,7.41
2022-12-08T18:13:14.914Z,7.43
2022-12-08T18:18:20.162Z,7.35
2022-12-08T18:23:25.431Z,7.38
2022-12-08T18:28:30.656Z,7.4
2022-12-08T18:33:35.900Z,7.45
2022-12-08T18:38:41.117Z,7.33
2022-12-08T18:43:46.347Z,7.31
2022-12-08T18:48:52.576Z,7.35
2022-12-08T18:53:58.803Z,7.36
2022-12-08T18:59:11.013Z,7.4
2022-12-08T19:04:29.806Z,7.45
2022-12-08T19:09:35.466Z,7.41
2022-12-08T19:14:40.753Z,7.44
2022-12-08T19:19:45.973Z,7.41
2022-12-08T19:24:51.202Z,7.22
2022-12-08T19:29:56.482Z,7.21
2022-12-08T19:35:01.670Z,7.23
2022-12-08T19:40:08.227Z,7.29
2022-12-08T19:45:15.170Z,7.32
2022-12-08T19:50:21.367Z,7.32
2022-12-08T19:55:26.596Z,7
2022-12-08T20:00:32.821Z,7.09
2022-12-08T20:05:40.091Z,7.24
2022-12-08T20:10:48.298Z,7.19
2022-12-08T20:15:53.616Z,7.06
2022-12-08T20:20:16.209Z,14.56
2022-12-08T20:25:21.161Z,8.51
2022-12-08T20:30:26.364Z,7.75
2022-12-08T20:35:31.576Z,7.64
2022-12-08T20:40:41.885Z,7.39
2022-12-08T20:45:47.225Z,7.27
2022-12-08T20:50:52.681Z,7.12
2022-12-08T20:55:59.763Z,7
2022-12-08T21:01:08.954Z,6.92
2022-12-08T21:06:21.115Z,6.91
2022-12-08T21:11:28.393Z,6.71
2022-12-08T21:16:38.806Z,6.67
2022-12-08T21:21:45.832Z,6.46
2022-12-08T21:26:51.876Z,6.55
2022-12-08T21:31:58.220Z,6.56
2022-12-08T21:37:03.429Z,6.42
2022-12-08T21:42:08.614Z,6.35
2022-12-08T21:47:13.979Z,6.35
2022-12-08T21:52:19.072Z,6.3
2022-12-08T21:57:24.316Z,6.34
2022-12-08T22:02:29.913Z,6.38
2022-12-08T22:07:37.872Z,6.35
2022-12-08T22:12:43.237Z,6.14
2022-12-08T22:17:48.571Z,6.19
2022-12-08T22:22:59.451Z,6.09
2022-12-08T22:28:05.916Z,6.06
2022-12-08T22:33:10.936Z,6.22
2022-12-08T22:38:16.155Z,6.23
2022-12-08T22:43:21.460Z,6.26
2022-12-08T22:48:27.632Z,6.17
2022-12-08T22:53:33.066Z,6.18
2022-12-08T22:58:38.235Z,6.02
2022-12-08T23:03:43.679Z,5.99
2022-12-08T23:08:48.810Z,6.15
2022-12-08T23:13:55.119Z,6.09
2022-12-08T23:19:00.157Z,6.11
2022-12-08T23:24:05.319Z,6.01
2022-12-08T23:29:10.803Z,5.92
2022-12-08T23:34:15.895Z,5.87
2022-12-08T23:39:21.097Z,5.79
2022-12-08T23:44:27.226Z,5.75
2022-12-08T23:49:32.474Z,5.78
2022-12-08T23:54:37.785Z,5.69
2022-12-08T23:59:43.111Z,5.82
